sensor_id;sensor_type;location;lat;lon;timestamp;temperature;humidity
55711;DHT22;41612;51.994;5.880;2022-11-21T00:00:39;4.30;79.80
55711;DHT22;41612;51.994;5.880;2022-11-21T00:03:05;4.20;79.80
55711;DHT22;41612;51.994;5.880;2022-11-21T00:05:31;4.20;79.80
55711;DHT22;41612;51.994;5.880;2022-11-21T00:07:57;4.20;79.90
55711;DHT22;41612;51.994;5.880;2022-11-21T00:10:24;4.20;79.90
55711;DHT22;41612;51.994;5.880;2022-11-21T00:12:54;4.20;79.90
55711;DHT22;41612;51.994;5.880;2022-11-21T00:15:21;4.20;79.90
55711;DHT22;41612;51.994;5.880;2022-11-21T00:17:47;4.20;79.90
55711;DHT22;41612;51.994;5.880;2022-11-21T00:20:13;4.20;79.90
55711;DHT22;41612;51.994;5.880;2022-11-21T00:22:38;4.20;79.90
55711;DHT22;41612;51.994;5.880;2022-11-21T00:25:04;4.20;79.80
55711;DHT22;41612;51.994;5.880;2022-11-21T00:27:30;4.30;79.70
55711;DHT22;41612;51.994;5.880;2022-11-21T00:29:56;4.30;79.70
55711;DHT22;41612;51.994;5.880;2022-11-21T00:32:21;4.30;79.70
55711;DHT22;41612;51.994;5.880;2022-11-21T00:34:47;4.30;79.70
55711;DHT22;41612;51.994;5.880;2022-11-21T00:37:13;4.20;79.70
55711;DHT22;41612;51.994;5.880;2022-11-21T00:39:39;4.20;79.70
55711;DHT22;41612;51.994;5.880;2022-11-21T00:42:04;4.20;79.80
55711;DHT22;41612;51.994;5.880;2022-11-21T00:44:30;4.20;79.70
55711;DHT22;41612;51.994;5.880;2022-11-21T00:46:56;4.30;79.70
55711;DHT22;41612;51.994;5.880;2022-11-21T00:49:21;4.30;79.70
55711;DHT22;41612;51.994;5.880;2022-11-21T00:51:50;4.30;79.70
55711;DHT22;41612;51.994;5.880;2022-11-21T00:54:16;4.20;79.70
55711;DHT22;41612;51.994;5.880;2022-11-21T00:56:41;4.30;79.70
55711;DHT22;41612;51.994;5.880;2022-11-21T00:59:07;4.30;79.70
55711;DHT22;41612;51.994;5.880;2022-11-21T01:01:33;4.30;79.70
55711;DHT22;41612;51.994;5.880;2022-11-21T01:03:58;4.30;79.70
55711;DHT22;41612;51.994;5.880;2022-11-21T01:06:24;4.30;79.60
55711;DHT22;41612;51.994;5.880;2022-11-21T01:08:49;4.30;79.60
55711;DHT22;41612;51.994;5.880;2022-11-21T01:11:18;4.30;79.60
55711;DHT22;41612;51.994;5.880;2022-11-21T01:13:44;4.30;79.60
55711;DHT22;41612;51.994;5.880;2022-11-21T01:16:15;4.30;79.60
55711;DHT22;41612;51.994;5.880;2022-11-21T01:18:42;4.30;79.70
55711;DHT22;41612;51.994;5.880;2022-11-21T01:21:14;4.30;79.70
55711;DHT22;41612;51.994;5.880;2022-11-21T01:23:40;4.30;79.60
55711;DHT22;41612;51.994;5.880;2022-11-21T01:26:12;4.30;79.70
55711;DHT22;41612;51.994;5.880;2022-11-21T01:28:38;4.30;79.70
55711;DHT22;41612;51.994;5.880;2022-11-21T01:31:08;4.30;79.80
55711;DHT22;41612;51.994;5.880;2022-11-21T01:33:34;4.20;79.80
55711;DHT22;41612;51.994;5.880;2022-11-21T01:36:14;4.20;79.80
55711;DHT22;41612;51.994;5.880;2022-11-21T01:38:41;4.30;79.90
55711;DHT22;41612;51.994;5.880;2022-11-21T01:41:09;4.20;79.90
55711;DHT22;41612;51.994;5.880;2022-11-21T01:43:35;4.20;79.90
55711;DHT22;41612;51.994;5.880;2022-11-21T01:54:18;4.20;79.90
55711;DHT22;41612;51.994;5.880;2022-11-21T01:56:48;4.20;80.00
55711;DHT22;41612;51.994;5.880;2022-11-21T01:59:56;4.20;80.10
55711;DHT22;41612;51.994;5.880;2022-11-21T02:02:16;4.20;80.20
55711;DHT22;41612;51.994;5.880;2022-11-21T02:04:43;4.20;80.20
55711;DHT22;41612;51.994;5.880;2022-11-21T02:07:09;4.20;80.20
55711;DHT22;41612;51.994;5.880;2022-11-21T02:09:38;4.20;80.10
55711;DHT22;41612;51.994;5.880;2022-11-21T02:12:25;4.20;80.10
55711;DHT22;41612;51.994;5.880;2022-11-21T02:14:57;4.20;80.10
55711;DHT22;41612;51.994;5.880;2022-11-21T02:17:25;4.20;80.10
55711;DHT22;41612;51.994;5.880;2022-11-21T02:19:56;4.20;80.20
55711;DHT22;41612;51.994;5.880;2022-11-21T02:22:44;4.20;80.20
55711;DHT22;41612;51.994;5.880;2022-11-21T02:25:19;4.20;80.10
55711;DHT22;41612;51.994;5.880;2022-11-21T02:27:48;4.20;80.20
55711;DHT22;41612;51.994;5.880;2022-11-21T02:30:15;4.20;80.30
55711;DHT22;41612;51.994;5.880;2022-11-21T02:32:44;4.20;80.30
55711;DHT22;41612;51.994;5.880;2022-11-21T02:35:17;4.20;80.30
55711;DHT22;41612;51.994;5.880;2022-11-21T02:37:46;4.20;80.40
55711;DHT22;41612;51.994;5.880;2022-11-21T02:40:20;4.20;80.30
55711;DHT22;41612;51.994;5.880;2022-11-21T02:43:02;4.20;80.20
55711;DHT22;41612;51.994;5.880;2022-11-21T02:45:42;4.20;80.20
55711;DHT22;41612;51.994;5.880;2022-11-21T02:48:08;4.20;80.30
55711;DHT22;41612;51.994;5.880;2022-11-21T02:50:36;4.30;80.10
55711;DHT22;41612;51.994;5.880;2022-11-21T02:53:04;4.30;80.10
55711;DHT22;41612;51.994;5.880;2022-11-21T02:55:30;4.30;80.10
55711;DHT22;41612;51.994;5.880;2022-11-21T02:57:56;4.30;80.00
55711;DHT22;41612;51.994;5.880;2022-11-21T03:00:21;4.30;79.90
55711;DHT22;41612;51.994;5.880;2022-11-21T03:02:50;4.30;80.00
55711;DHT22;41612;51.994;5.880;2022-11-21T03:05:17;4.30;79.90
55711;DHT22;41612;51.994;5.880;2022-11-21T03:07:44;4.30;80.10
55711;DHT22;41612;51.994;5.880;2022-11-21T03:10:09;4.20;80.10
55711;DHT22;41612;51.994;5.880;2022-11-21T03:12:39;4.20;80.20
55711;DHT22;41612;51.994;5.880;2022-11-21T03:15:07;4.10;80.30
55711;DHT22;41612;51.994;5.880;2022-11-21T03:17:33;4.20;80.30
55711;DHT22;41612;51.994;5.880;2022-11-21T03:19:59;4.10;80.30
55711;DHT22;41612;51.994;5.880;2022-11-21T03:22:25;4.10;80.40
55711;DHT22;41612;51.994;5.880;2022-11-21T03:24:50;4.10;80.40
55711;DHT22;41612;51.994;5.880;2022-11-21T03:27:16;4.10;80.50
55711;DHT22;41612;51.994;5.880;2022-11-21T03:29:42;4.10;80.60
55711;DHT22;41612;51.994;5.880;2022-11-21T03:32:07;4.20;80.50
55711;DHT22;41612;51.994;5.880;2022-11-21T03:34:33;4.10;80.50
55711;DHT22;41612;51.994;5.880;2022-11-21T03:36:59;4.20;80.50
55711;DHT22;41612;51.994;5.880;2022-11-21T03:39:24;4.20;80.50
55711;DHT22;41612;51.994;5.880;2022-11-21T03:41:50;4.10;80.50
55711;DHT22;41612;51.994;5.880;2022-11-21T03:44:16;4.10;80.50
55711;DHT22;41612;51.994;5.880;2022-11-21T03:46:44;4.10;80.50
55711;DHT22;41612;51.994;5.880;2022-11-21T03:49:10;4.10;80.50
55711;DHT22;41612;51.994;5.880;2022-11-21T03:51:36;4.00;80.50
55711;DHT22;41612;51.994;5.880;2022-11-21T03:54:02;4.00;80.70
55711;DHT22;41612;51.994;5.880;2022-11-21T03:56:28;3.90;80.90
55711;DHT22;41612;51.994;5.880;2022-11-21T03:58:54;3.90;81.20
55711;DHT22;41612;51.994;5.880;2022-11-21T04:01:21;3.80;81.40
55711;DHT22;41612;51.994;5.880;2022-11-21T04:03:47;3.80;81.50
55711;DHT22;41612;51.994;5.880;2022-11-21T04:06:15;3.80;81.60
55711;DHT22;41612;51.994;5.880;2022-11-21T04:08:42;3.80;81.90
55711;DHT22;41612;51.994;5.880;2022-11-21T04:11:08;3.80;82.10
55711;DHT22;41612;51.994;5.880;2022-11-21T04:13:33;3.70;82.20
55711;DHT22;41612;51.994;5.880;2022-11-21T04:15:59;3.70;82.40
55711;DHT22;41612;51.994;5.880;2022-11-21T04:18:25;3.70;82.30
55711;DHT22;41612;51.994;5.880;2022-11-21T04:21:04;3.70;82.40
55711;DHT22;41612;51.994;5.880;2022-11-21T04:23:30;3.80;82.50
55711;DHT22;41612;51.994;5.880;2022-11-21T04:25:56;3.80;82.50
55711;DHT22;41612;51.994;5.880;2022-11-21T04:28:22;3.80;82.40
55711;DHT22;41612;51.994;5.880;2022-11-21T04:30:53;3.80;82.50
55711;DHT22;41612;51.994;5.880;2022-11-21T04:33:19;3.80;82.80
55711;DHT22;41612;51.994;5.880;2022-11-21T04:35:45;3.70;82.70
55711;DHT22;41612;51.994;5.880;2022-11-21T04:38:12;3.80;82.70
55711;DHT22;41612;51.994;5.880;2022-11-21T04:40:38;3.70;82.60
55711;DHT22;41612;51.994;5.880;2022-11-21T04:43:04;3.70;82.60
55711;DHT22;41612;51.994;5.880;2022-11-21T04:45:30;3.80;82.60
55711;DHT22;41612;51.994;5.880;2022-11-21T04:47:56;3.80;82.60
55711;DHT22;41612;51.994;5.880;2022-11-21T04:50:22;3.80;82.60
55711;DHT22;41612;51.994;5.880;2022-11-21T04:52:49;3.70;82.80
55711;DHT22;41612;51.994;5.880;2022-11-21T04:55:15;3.70;83.00
55711;DHT22;41612;51.994;5.880;2022-11-21T04:57:41;3.70;83.10
55711;DHT22;41612;51.994;5.880;2022-11-21T05:00:07;3.70;83.00
55711;DHT22;41612;51.994;5.880;2022-11-21T05:02:33;3.70;83.00
55711;DHT22;41612;51.994;5.880;2022-11-21T05:04:58;3.70;83.00
55711;DHT22;41612;51.994;5.880;2022-11-21T05:07:24;3.70;83.10
55711;DHT22;41612;51.994;5.880;2022-11-21T05:09:50;3.80;82.90
55711;DHT22;41612;51.994;5.880;2022-11-21T05:12:16;3.80;82.90
55711;DHT22;41612;51.994;5.880;2022-11-21T05:15:00;3.80;83.00
55711;DHT22;41612;51.994;5.880;2022-11-21T05:17:29;3.80;82.90
55711;DHT22;41612;51.994;5.880;2022-11-21T05:19:55;3.80;82.90
55711;DHT22;41612;51.994;5.880;2022-11-21T05:22:20;3.80;82.70
55711;DHT22;41612;51.994;5.880;2022-11-21T05:24:46;3.80;82.90
55711;DHT22;41612;51.994;5.880;2022-11-21T05:27:11;3.80;83.00
55711;DHT22;41612;51.994;5.880;2022-11-21T05:29:37;3.70;83.30
55711;DHT22;41612;51.994;5.880;2022-11-21T05:32:03;3.70;83.40
55711;DHT22;41612;51.994;5.880;2022-11-21T05:34:29;3.70;83.40
55711;DHT22;41612;51.994;5.880;2022-11-21T05:36:54;3.70;83.40
55711;DHT22;41612;51.994;5.880;2022-11-21T05:39:23;3.80;83.40
55711;DHT22;41612;51.994;5.880;2022-11-21T05:41:49;3.80;83.50
55711;DHT22;41612;51.994;5.880;2022-11-21T05:44:15;3.70;83.50
55711;DHT22;41612;51.994;5.880;2022-11-21T05:46:41;3.70;83.60
55711;DHT22;41612;51.994;5.880;2022-11-21T05:49:06;3.70;83.60
55711;DHT22;41612;51.994;5.880;2022-11-21T05:51:33;3.70;84.00
55711;DHT22;41612;51.994;5.880;2022-11-21T05:54:01;3.60;84.30
55711;DHT22;41612;51.994;5.880;2022-11-21T05:56:27;3.50;84.60
55711;DHT22;41612;51.994;5.880;2022-11-21T05:58:57;3.50;84.50
55711;DHT22;41612;51.994;5.880;2022-11-21T06:01:23;3.50;84.50
55711;DHT22;41612;51.994;5.880;2022-11-21T06:04:08;3.60;84.70
55711;DHT22;41612;51.994;5.880;2022-11-21T06:06:34;3.60;84.70
55711;DHT22;41612;51.994;5.880;2022-11-21T06:09:00;3.60;84.70
55711;DHT22;41612;51.994;5.880;2022-11-21T06:11:26;3.60;84.70
55711;DHT22;41612;51.994;5.880;2022-11-21T06:13:52;3.50;84.80
55711;DHT22;41612;51.994;5.880;2022-11-21T06:16:19;3.60;84.90
55711;DHT22;41612;51.994;5.880;2022-11-21T06:18:47;3.60;84.60
55711;DHT22;41612;51.994;5.880;2022-11-21T06:21:15;3.70;84.60
55711;DHT22;41612;51.994;5.880;2022-11-21T06:23:41;3.70;84.70
55711;DHT22;41612;51.994;5.880;2022-11-21T06:26:09;3.60;84.90
55711;DHT22;41612;51.994;5.880;2022-11-21T06:28:37;3.60;85.00
55711;DHT22;41612;51.994;5.880;2022-11-21T06:31:05;3.60;85.10
55711;DHT22;41612;51.994;5.880;2022-11-21T06:33:31;3.60;85.20
55711;DHT22;41612;51.994;5.880;2022-11-21T06:35:57;3.70;85.20
55711;DHT22;41612;51.994;5.880;2022-11-21T06:38:26;3.70;85.20
55711;DHT22;41612;51.994;5.880;2022-11-21T06:40:52;3.60;85.20
55711;DHT22;41612;51.994;5.880;2022-11-21T06:43:17;3.60;85.30
55711;DHT22;41612;51.994;5.880;2022-11-21T06:45:43;3.60;85.40
55711;DHT22;41612;51.994;5.880;2022-11-21T06:48:09;3.60;85.50
55711;DHT22;41612;51.994;5.880;2022-11-21T06:50:34;3.50;85.60
55711;DHT22;41612;51.994;5.880;2022-11-21T06:53:00;3.60;85.60
55711;DHT22;41612;51.994;5.880;2022-11-21T06:55:26;3.50;85.60
55711;DHT22;41612;51.994;5.880;2022-11-21T06:57:56;3.60;85.60
55711;DHT22;41612;51.994;5.880;2022-11-21T07:00:22;3.70;85.50
55711;DHT22;41612;51.994;5.880;2022-11-21T07:02:49;3.70;85.50
55711;DHT22;41612;51.994;5.880;2022-11-21T07:05:15;3.70;85.30
55711;DHT22;41612;51.994;5.880;2022-11-21T07:07:42;3.70;85.50
55711;DHT22;41612;51.994;5.880;2022-11-21T07:10:09;3.60;85.50
55711;DHT22;41612;51.994;5.880;2022-11-21T07:12:34;3.70;85.50
55711;DHT22;41612;51.994;5.880;2022-11-21T07:15:22;3.70;85.60
55711;DHT22;41612;51.994;5.880;2022-11-21T07:17:48;3.70;85.60
55711;DHT22;41612;51.994;5.880;2022-11-21T07:20:14;3.70;85.70
55711;DHT22;41612;51.994;5.880;2022-11-21T07:22:39;3.70;85.70
55711;DHT22;41612;51.994;5.880;2022-11-21T07:25:05;3.70;85.70
55711;DHT22;41612;51.994;5.880;2022-11-21T07:27:31;3.70;85.80
55711;DHT22;41612;51.994;5.880;2022-11-21T07:29:57;3.70;85.80
55711;DHT22;41612;51.994;5.880;2022-11-21T07:32:24;3.70;85.80
55711;DHT22;41612;51.994;5.880;2022-11-21T07:34:50;3.80;85.80
55711;DHT22;41612;51.994;5.880;2022-11-21T07:37:16;3.80;85.70
55711;DHT22;41612;51.994;5.880;2022-11-21T07:39:41;3.80;85.60
55711;DHT22;41612;51.994;5.880;2022-11-21T07:42:07;3.80;85.60
55711;DHT22;41612;51.994;5.880;2022-11-21T07:44:35;3.80;85.70
55711;DHT22;41612;51.994;5.880;2022-11-21T07:47:00;3.80;85.70
55711;DHT22;41612;51.994;5.880;2022-11-21T07:49:27;3.90;85.70
55711;DHT22;41612;51.994;5.880;2022-11-21T07:51:53;3.90;85.60
55711;DHT22;41612;51.994;5.880;2022-11-21T07:54:19;3.90;85.60
55711;DHT22;41612;51.994;5.880;2022-11-21T07:56:44;4.00;85.70
55711;DHT22;41612;51.994;5.880;2022-11-21T07:59:10;4.00;85.60
55711;DHT22;41612;51.994;5.880;2022-11-21T08:04:47;4.00;85.60
55711;DHT22;41612;51.994;5.880;2022-11-21T08:07:14;4.00;85.70
55711;DHT22;41612;51.994;5.880;2022-11-21T08:09:40;4.10;85.80
55711;DHT22;41612;51.994;5.880;2022-11-21T08:12:06;4.10;85.80
55711;DHT22;41612;51.994;5.880;2022-11-21T08:14:33;4.20;85.80
55711;DHT22;41612;51.994;5.880;2022-11-21T08:16:59;4.10;85.70
55711;DHT22;41612;51.994;5.880;2022-11-21T08:19:24;4.10;85.70
55711;DHT22;41612;51.994;5.880;2022-11-21T08:21:50;4.20;85.60
55711;DHT22;41612;51.994;5.880;2022-11-21T08:24:15;4.20;85.80
55711;DHT22;41612;51.994;5.880;2022-11-21T08:26:43;4.20;85.70
55711;DHT22;41612;51.994;5.880;2022-11-21T08:29:09;4.30;85.60
55711;DHT22;41612;51.994;5.880;2022-11-21T08:31:36;4.30;85.50
55711;DHT22;41612;51.994;5.880;2022-11-21T08:34:02;4.30;85.60
55711;DHT22;41612;51.994;5.880;2022-11-21T08:36:28;4.30;85.50
55711;DHT22;41612;51.994;5.880;2022-11-21T08:38:54;4.30;85.60
55711;DHT22;41612;51.994;5.880;2022-11-21T08:41:20;4.30;85.40
55711;DHT22;41612;51.994;5.880;2022-11-21T08:44:05;4.40;85.40
55711;DHT22;41612;51.994;5.880;2022-11-21T08:46:32;4.40;85.20
55711;DHT22;41612;51.994;5.880;2022-11-21T08:49:04;4.30;85.00
55711;DHT22;41612;51.994;5.880;2022-11-21T08:51:31;4.40;85.00
55711;DHT22;41612;51.994;5.880;2022-11-21T08:53:56;4.40;85.00
55711;DHT22;41612;51.994;5.880;2022-11-21T08:56:22;4.40;85.30
55711;DHT22;41612;51.994;5.880;2022-11-21T08:58:48;4.40;85.20
55711;DHT22;41612;51.994;5.880;2022-11-21T09:01:14;4.40;85.00
55711;DHT22;41612;51.994;5.880;2022-11-21T09:03:40;4.40;85.10
55711;DHT22;41612;51.994;5.880;2022-11-21T09:06:06;4.40;85.20
55711;DHT22;41612;51.994;5.880;2022-11-21T09:08:31;4.40;85.20
55711;DHT22;41612;51.994;5.880;2022-11-21T09:10:57;4.50;85.30
55711;DHT22;41612;51.994;5.880;2022-11-21T09:13:27;4.50;85.10
55711;DHT22;41612;51.994;5.880;2022-11-21T09:15:52;4.50;85.20
55711;DHT22;41612;51.994;5.880;2022-11-21T09:18:37;4.40;85.30
55711;DHT22;41612;51.994;5.880;2022-11-21T09:21:02;4.50;85.40
55711;DHT22;41612;51.994;5.880;2022-11-21T09:23:28;4.40;85.20
55711;DHT22;41612;51.994;5.880;2022-11-21T09:25:53;4.40;85.50
55711;DHT22;41612;51.994;5.880;2022-11-21T09:28:20;4.40;85.80
55711;DHT22;41612;51.994;5.880;2022-11-21T09:30:46;4.40;85.90
55711;DHT22;41612;51.994;5.880;2022-11-21T09:33:14;4.50;85.70
55711;DHT22;41612;51.994;5.880;2022-11-21T09:35:41;4.60;85.70
55711;DHT22;41612;51.994;5.880;2022-11-21T09:38:07;4.60;85.90
55711;DHT22;41612;51.994;5.880;2022-11-21T09:40:34;4.70;85.80
55711;DHT22;41612;51.994;5.880;2022-11-21T09:45:49;4.90;85.60
55711;DHT22;41612;51.994;5.880;2022-11-21T09:49:09;5.00;85.40
55711;DHT22;41612;51.994;5.880;2022-11-21T09:51:30;5.10;85.40
55711;DHT22;41612;51.994;5.880;2022-11-21T09:56:56;5.00;85.30
55711;DHT22;41612;51.994;5.880;2022-11-21T10:01:47;4.90;85.60
55711;DHT22;41612;51.994;5.880;2022-11-21T10:04:13;5.00;85.80
55711;DHT22;41612;51.994;5.880;2022-11-21T10:12:26;5.10;85.70
55711;DHT22;41612;51.994;5.880;2022-11-21T10:17:50;5.30;85.50
55711;DHT22;41612;51.994;5.880;2022-11-21T10:29:19;5.40;85.70
55711;DHT22;41612;51.994;5.880;2022-11-21T10:31:47;5.30;86.10
55711;DHT22;41612;51.994;5.880;2022-11-21T10:34:23;5.30;86.20
55711;DHT22;41612;51.994;5.880;2022-11-21T10:36:54;5.20;86.40
55711;DHT22;41612;51.994;5.880;2022-11-21T10:39:30;5.20;86.70
55711;DHT22;41612;51.994;5.880;2022-11-21T10:44:29;5.30;86.70
55711;DHT22;41612;51.994;5.880;2022-11-21T10:47:23;5.30;86.60
55711;DHT22;41612;51.994;5.880;2022-11-21T10:50:24;5.30;86.90
55711;DHT22;41612;51.994;5.880;2022-11-21T10:53:09;5.40;86.90
55711;DHT22;41612;51.994;5.880;2022-11-21T10:56:07;5.40;86.60
55711;DHT22;41612;51.994;5.880;2022-11-21T11:01:33;5.50;87.00
55711;DHT22;41612;51.994;5.880;2022-11-21T11:06:41;5.60;87.10
55711;DHT22;41612;51.994;5.880;2022-11-21T11:09:26;5.70;87.40
55711;DHT22;41612;51.994;5.880;2022-11-21T11:12:15;5.70;87.20
55711;DHT22;41612;51.994;5.880;2022-11-21T11:14:38;5.70;87.30
55711;DHT22;41612;51.994;5.880;2022-11-21T11:17:04;5.80;87.30
55711;DHT22;41612;51.994;5.880;2022-11-21T11:19:30;5.80;87.30
55711;DHT22;41612;51.994;5.880;2022-11-21T11:21:55;5.90;87.30
55711;DHT22;41612;51.994;5.880;2022-11-21T11:24:24;6.00;87.20
55711;DHT22;41612;51.994;5.880;2022-11-21T11:29:22;6.20;87.00
55711;DHT22;41612;51.994;5.880;2022-11-21T11:31:52;6.40;87.00
55711;DHT22;41612;51.994;5.880;2022-11-21T11:34:19;6.40;86.80
55711;DHT22;41612;51.994;5.880;2022-11-21T11:37:00;6.40;86.80
55711;DHT22;41612;51.994;5.880;2022-11-21T11:42:50;6.50;86.80
55711;DHT22;41612;51.994;5.880;2022-11-21T11:48:30;6.60;86.70
55711;DHT22;41612;51.994;5.880;2022-11-21T11:51:10;6.60;86.20
55711;DHT22;41612;51.994;5.880;2022-11-21T11:53:43;6.60;86.50
55711;DHT22;41612;51.994;5.880;2022-11-21T11:56:16;6.70;86.70
55711;DHT22;41612;51.994;5.880;2022-11-21T12:01:52;6.80;86.60
55711;DHT22;41612;51.994;5.880;2022-11-21T12:04:21;6.90;86.60
55711;DHT22;41612;51.994;5.880;2022-11-21T12:07:17;7.00;86.30
55711;DHT22;41612;51.994;5.880;2022-11-21T12:10:13;7.10;86.50
55711;DHT22;41612;51.994;5.880;2022-11-21T12:12:44;7.10;86.40
55711;DHT22;41612;51.994;5.880;2022-11-21T12:20:51;7.10;86.20
55711;DHT22;41612;51.994;5.880;2022-11-21T12:23:19;7.20;86.00
55711;DHT22;41612;51.994;5.880;2022-11-21T12:26:04;7.30;86.10
55711;DHT22;41612;51.994;5.880;2022-11-21T12:37:00;7.70;85.90
55711;DHT22;41612;51.994;5.880;2022-11-21T12:48:12;7.90;85.50
55711;DHT22;41612;51.994;5.880;2022-11-21T12:51:28;7.90;84.80
55711;DHT22;41612;51.994;5.880;2022-11-21T12:59:58;7.80;84.50
55711;DHT22;41612;51.994;5.880;2022-11-21T13:05:31;7.70;85.10
55711;DHT22;41612;51.994;5.880;2022-11-21T13:08:05;7.70;85.80
55711;DHT22;41612;51.994;5.880;2022-11-21T13:10:31;7.80;85.80
55711;DHT22;41612;51.994;5.880;2022-11-21T13:13:21;7.90;85.20
55711;DHT22;41612;51.994;5.880;2022-11-21T13:15:54;7.90;85.40
55711;DHT22;41612;51.994;5.880;2022-11-21T13:18:29;7.90;85.60
55711;DHT22;41612;51.994;5.880;2022-11-21T13:20:57;7.90;85.50
55711;DHT22;41612;51.994;5.880;2022-11-21T13:23:38;8.00;85.20
55711;DHT22;41612;51.994;5.880;2022-11-21T13:29:12;8.10;85.40
55711;DHT22;41612;51.994;5.880;2022-11-21T13:31:39;8.20;84.50
55711;DHT22;41612;51.994;5.880;2022-11-21T13:34:33;8.20;85.00
55711;DHT22;41612;51.994;5.880;2022-11-21T13:36:59;8.30;85.00
55711;DHT22;41612;51.994;5.880;2022-11-21T13:39:27;8.30;85.00
55711;DHT22;41612;51.994;5.880;2022-11-21T13:42:01;8.30;85.10
55711;DHT22;41612;51.994;5.880;2022-11-21T13:44:46;8.30;85.10
55711;DHT22;41612;51.994;5.880;2022-11-21T13:47:30;8.50;85.10
55711;DHT22;41612;51.994;5.880;2022-11-21T13:50:36;8.70;84.20
55711;DHT22;41612;51.994;5.880;2022-11-21T14:06:35;9.70;81.00
55711;DHT22;41612;51.994;5.880;2022-11-21T14:09:36;9.70;80.40
55711;DHT22;41612;51.994;5.880;2022-11-21T14:12:21;9.70;80.10
55711;DHT22;41612;51.994;5.880;2022-11-21T14:17:42;9.50;80.30
55711;DHT22;41612;51.994;5.880;2022-11-21T14:20:19;9.40;79.60
55711;DHT22;41612;51.994;5.880;2022-11-21T14:23:00;9.30;80.00
55711;DHT22;41612;51.994;5.880;2022-11-21T14:27:56;8.80;79.30
55711;DHT22;41612;51.994;5.880;2022-11-21T14:30:43;8.60;79.70
55711;DHT22;41612;51.994;5.880;2022-11-21T14:33:22;8.40;80.40
55711;DHT22;41612;51.994;5.880;2022-11-21T14:38:20;8.20;81.50
55711;DHT22;41612;51.994;5.880;2022-11-21T14:40:46;8.10;81.10
55711;DHT22;41612;51.994;5.880;2022-11-21T14:43:30;8.00;81.80
55711;DHT22;41612;51.994;5.880;2022-11-21T14:45:56;7.90;82.30
55711;DHT22;41612;51.994;5.880;2022-11-21T14:48:26;7.80;82.50
55711;DHT22;41612;51.994;5.880;2022-11-21T14:50:54;7.70;82.70
55711;DHT22;41612;51.994;5.880;2022-11-21T14:53:20;7.70;82.80
55711;DHT22;41612;51.994;5.880;2022-11-21T14:55:50;7.60;82.90
55711;DHT22;41612;51.994;5.880;2022-11-21T14:58:19;7.60;82.70
55711;DHT22;41612;51.994;5.880;2022-11-21T15:01:26;7.50;82.40
55711;DHT22;41612;51.994;5.880;2022-11-21T15:03:59;7.50;83.10
55711;DHT22;41612;51.994;5.880;2022-11-21T15:06:26;7.40;83.10
55711;DHT22;41612;51.994;5.880;2022-11-21T15:08:57;7.30;83.60
55711;DHT22;41612;51.994;5.880;2022-11-21T15:14:02;7.30;84.10
55711;DHT22;41612;51.994;5.880;2022-11-21T15:16:29;7.20;84.00
55711;DHT22;41612;51.994;5.880;2022-11-21T15:18:55;7.30;84.30
55711;DHT22;41612;51.994;5.880;2022-11-21T15:21:21;7.20;84.50
55711;DHT22;41612;51.994;5.880;2022-11-21T15:23:46;7.20;84.80
55711;DHT22;41612;51.994;5.880;2022-11-21T15:26:32;7.20;84.90
55711;DHT22;41612;51.994;5.880;2022-11-21T15:29:00;7.20;84.80
55711;DHT22;41612;51.994;5.880;2022-11-21T15:31:26;7.20;84.80
55711;DHT22;41612;51.994;5.880;2022-11-21T15:33:59;7.20;85.00
55711;DHT22;41612;51.994;5.880;2022-11-21T15:36:27;7.20;84.80
55711;DHT22;41612;51.994;5.880;2022-11-21T15:41:25;7.20;84.80
55711;DHT22;41612;51.994;5.880;2022-11-21T15:43:54;7.20;84.70
55711;DHT22;41612;51.994;5.880;2022-11-21T15:46:26;7.10;84.10
55711;DHT22;41612;51.994;5.880;2022-11-21T15:49:05;7.10;84.10
55711;DHT22;41612;51.994;5.880;2022-11-21T15:51:49;7.00;84.40
55711;DHT22;41612;51.994;5.880;2022-11-21T15:54:17;7.00;85.00
55711;DHT22;41612;51.994;5.880;2022-11-21T15:56:42;7.00;85.10
55711;DHT22;41612;51.994;5.880;2022-11-21T15:59:09;7.00;85.30
55711;DHT22;41612;51.994;5.880;2022-11-21T16:01:35;7.10;85.10
55711;DHT22;41612;51.994;5.880;2022-11-21T16:04:03;7.10;85.00
55711;DHT22;41612;51.994;5.880;2022-11-21T16:06:29;7.10;85.10
55711;DHT22;41612;51.994;5.880;2022-11-21T16:08:56;7.20;85.20
55711;DHT22;41612;51.994;5.880;2022-11-21T16:11:35;7.20;84.80
55711;DHT22;41612;51.994;5.880;2022-11-21T16:14:11;7.10;84.00
55711;DHT22;41612;51.994;5.880;2022-11-21T16:16:39;7.20;83.70
55711;DHT22;41612;51.994;5.880;2022-11-21T16:19:05;7.10;84.10
55711;DHT22;41612;51.994;5.880;2022-11-21T16:21:31;7.10;83.80
55711;DHT22;41612;51.994;5.880;2022-11-21T16:23:56;7.10;84.10
55711;DHT22;41612;51.994;5.880;2022-11-21T16:26:22;7.10;83.80
55711;DHT22;41612;51.994;5.880;2022-11-21T16:28:55;7.10;83.60
55711;DHT22;41612;51.994;5.880;2022-11-21T16:31:22;7.00;83.80
55711;DHT22;41612;51.994;5.880;2022-11-21T16:33:48;7.00;83.20
55711;DHT22;41612;51.994;5.880;2022-11-21T16:36:24;7.00;82.50
55711;DHT22;41612;51.994;5.880;2022-11-21T16:38:51;7.00;83.20
55711;DHT22;41612;51.994;5.880;2022-11-21T16:41:17;7.00;83.40
55711;DHT22;41612;51.994;5.880;2022-11-21T16:43:48;7.00;82.80
55711;DHT22;41612;51.994;5.880;2022-11-21T16:46:14;7.00;83.10
55711;DHT22;41612;51.994;5.880;2022-11-21T16:48:40;7.00;84.00
55711;DHT22;41612;51.994;5.880;2022-11-21T16:51:19;7.00;84.30
55711;DHT22;41612;51.994;5.880;2022-11-21T16:53:47;6.90;84.60
55711;DHT22;41612;51.994;5.880;2022-11-21T16:56:12;6.90;84.60
55711;DHT22;41612;51.994;5.880;2022-11-21T16:58:40;6.90;84.80
55711;DHT22;41612;51.994;5.880;2022-11-21T17:03:33;7.00;84.60
55711;DHT22;41612;51.994;5.880;2022-11-21T17:05:59;7.00;85.00
55711;DHT22;41612;51.994;5.880;2022-11-21T17:08:27;7.00;85.00
55711;DHT22;41612;51.994;5.880;2022-11-21T17:10:55;7.00;84.80
55711;DHT22;41612;51.994;5.880;2022-11-21T17:13:21;7.00;84.50
55711;DHT22;41612;51.994;5.880;2022-11-21T17:15:47;7.00;84.90
55711;DHT22;41612;51.994;5.880;2022-11-21T17:18:12;7.10;84.70
55711;DHT22;41612;51.994;5.880;2022-11-21T17:20:38;7.10;85.20
55711;DHT22;41612;51.994;5.880;2022-11-21T17:23:04;7.10;85.00
55711;DHT22;41612;51.994;5.880;2022-11-21T17:25:31;7.00;85.20
55711;DHT22;41612;51.994;5.880;2022-11-21T17:27:56;7.10;84.70
55711;DHT22;41612;51.994;5.880;2022-11-21T17:30:22;7.00;84.20
55711;DHT22;41612;51.994;5.880;2022-11-21T17:32:48;7.00;84.70
55711;DHT22;41612;51.994;5.880;2022-11-21T17:35:14;7.10;84.40
55711;DHT22;41612;51.994;5.880;2022-11-21T17:37:39;7.00;84.80
55711;DHT22;41612;51.994;5.880;2022-11-21T17:40:05;7.10;84.70
55711;DHT22;41612;51.994;5.880;2022-11-21T17:42:35;7.10;84.60
55711;DHT22;41612;51.994;5.880;2022-11-21T17:45:00;7.00;84.70
55711;DHT22;41612;51.994;5.880;2022-11-21T17:47:26;7.10;84.30
55711;DHT22;41612;51.994;5.880;2022-11-21T17:49:54;7.10;84.40
55711;DHT22;41612;51.994;5.880;2022-11-21T17:52:20;7.10;84.30
55711;DHT22;41612;51.994;5.880;2022-11-21T17:54:46;7.10;84.30
55711;DHT22;41612;51.994;5.880;2022-11-21T17:57:11;7.10;83.40
55711;DHT22;41612;51.994;5.880;2022-11-21T17:59:37;7.10;82.50